Monday, December 18, 2017, 7:52 AM EST
Back to Local

KIWI, Wiscasset Municipal Airport

Location: Wiscasset, ME, United States Lat: 43.967
Local Time: 7:52 AM EST (12:52 GMT) Lon: -69.717
Time Zone: US/Eastern Elev: 68 ft

Show me the last for .
Show Coded

Time T Td Feel RH Dir Speed Gust Alt SLP Vis Weather Sky Remarks
2017-12-18 06:53 10 7 - 87 - Calm - 30.21 30.21 10 CLR 6-hr Min Temp (7am): 3.9°F
6-hr Max Temp (7am): 10.0°F
2017-12-18 05:53 7 5 - 91 - Calm - 30.22 30.22 10 CLR None
2017-12-18 04:53 7 5 - 91 - Calm - 30.23 30.24 10 CLR None
2017-12-18 03:53 6 3 - 86 - Calm - 30.24 30.24 10 CLR None
2017-12-18 02:53 4 2 - 91 - Calm - 30.25 30.25 10 CLR None
2017-12-18 01:53 6 3 - 86 - Calm - 30.26 30.27 10 CLR None
2017-12-18 00:53 5 3 - 91 - Calm - 30.25 30.26 10 CLR 6-hr Min Temp (1am): 5.0°F
6-hr Max Temp (1am): 15.1°F
2017-12-17 23:53 7 4 - 86 - Calm - 30.27 30.27 10 CLR 24-hr Min Temp (12am): 3.0°F
24-hr Max Temp (12am): 24.1°F
2017-12-17 22:53 7 4 - 86 - Calm - 30.28 30.28 10 CLR None
2017-12-17 21:53 9 4 - 79 - Calm - 30.29 30.29 10 CLR None
2017-12-17 20:53 13 3 - 63 - Calm - 30.29 30.29 10 CLR None
2017-12-17 19:53 12 5 - 72 - Calm - 30.29 30.29 10 CLR None
2017-12-17 18:53 15 3 - 58 - Calm - 30.26 30.27 10 CLR 6-hr Min Temp (7pm): 15.1°F
6-hr Max Temp (7pm): 24.1°F
2017-12-17 17:53 16 3 9 55 Variable 5 - 30.26 30.27 10 CLR None
2017-12-17 16:53 18 3 - 51 - Calm - 30.25 30.25 10 CLR None
2017-12-17 15:53 20 2 11 44 Variable 7 - 30.23 30.23 10 CLR None
2017-12-17 14:53 23 3 17 41 Variable 5 - 30.22 30.22 10 CLR None
2017-12-17 13:53 23 3 17 41 Variable 5 - 30.21 30.21 10 CLR None
2017-12-17 12:53 23 4 17 43 Variable 5 - 30.21 30.21 10 CLR 6-hr Min Temp (1pm): 3.0°F
6-hr Max Temp (1pm): 24.1°F
2017-12-17 11:53 23 6 - 47 - - - 30.22 30.22 10 CLR None
2017-12-17 10:53 21 5 - 49 - - - 30.24 30.24 10 CLR None
2017-12-17 09:53 20 7 - 56 - Calm - 30.24 30.24 10 CLR None
2017-12-17 08:53 17 9 - 69 - Calm - 30.23 30.23 10 CLR None
2017-12-17 07:53 5 3 - 91 - Calm - 30.24 30.24 10 CLR None

Support USWX by starting your Amazon purchase here.